createdAt,value
2023-08-27T00:02:17.365Z,99448.56
2023-08-27T00:05:16.306Z,99448.03
2023-08-27T00:08:14.349Z,99449.28
2023-08-27T00:11:12.295Z,99448.19
2023-08-27T00:14:10.337Z,99431.84
2023-08-27T00:17:10.305Z,99444.16
2023-08-27T00:20:10.154Z,99444.31
2023-08-27T00:23:08.359Z,99435.03
2023-08-27T00:26:05.343Z,99424.97
2023-08-27T00:29:03.300Z,99431.06
2023-08-27T00:32:01.990Z,99427.66
2023-08-27T00:35:03.336Z,99421.06
2023-08-27T00:38:01.443Z,99423.97
2023-08-27T00:40:59.287Z,99418.91
2023-08-27T00:43:56.385Z,99424.53
2023-08-27T00:46:55.346Z,99437.34
2023-08-27T00:49:53.490Z,99430.72
2023-08-27T00:52:51.331Z,99428.72
2023-08-27T00:55:51.531Z,99421.94
2023-08-27T00:58:49.316Z,99418.53
2023-08-27T01:01:47.433Z,99425.09
2023-08-27T01:04:45.331Z,99415.66
2023-08-27T01:08:32.374Z,99422.47
2023-08-27T01:11:39.352Z,99419.34
2023-08-27T01:14:50.336Z,99425.75
2023-08-27T01:17:55.383Z,99425.97
2023-08-27T01:20:52.456Z,99422.69
2023-08-27T01:23:50.378Z,99426.09
2023-08-27T01:27:04.447Z,99423.88
2023-08-27T01:30:11.372Z,99428.19
2023-08-27T01:33:22.466Z,99424.47
2023-08-27T01:36:20.339Z,99428.78
2023-08-27T01:39:20.432Z,99420.44
2023-08-27T01:42:18.361Z,99426.19
2023-08-27T01:45:17.917Z,99427.22
2023-08-27T01:48:16.421Z,99417.44
2023-08-27T01:51:14.525Z,99414.87
2023-08-27T01:54:12.435Z,99415.94
2023-08-27T01:57:10.533Z,99401.44
2023-08-27T02:00:08.427Z,99405.44
2023-08-27T02:03:21.425Z,99404.84
2023-08-27T02:06:25.470Z,99398.78
2023-08-27T02:09:22.472Z,99394.69
2023-08-27T02:12:20.427Z,99400.06
2023-08-27T02:15:18.486Z,99399.69
2023-08-27T02:18:16.438Z,99394.69
2023-08-27T02:21:13.474Z,99397.84
2023-08-27T02:24:11.430Z,99383.66
2023-08-27T02:27:09.461Z,99388.00
2023-08-27T02:30:07.471Z,99387.62
2023-08-27T02:33:05.473Z,99384.13
2023-08-27T02:36:03.476Z,99390.28
2023-08-27T02:39:01.534Z,99382.06
2023-08-27T02:41:59.434Z,99389.94
2023-08-27T02:44:57.481Z,99384.66
2023-08-27T02:47:55.480Z,99384.91
2023-08-27T02:50:52.468Z,99376.87
2023-08-27T02:53:50.516Z,99372.22
2023-08-27T02:56:47.501Z,99371.66
2023-08-27T02:59:45.453Z,99375.37
2023-08-27T03:02:43.518Z,99390.66
2023-08-27T03:05:48.556Z,99383.22
2023-08-27T03:08:46.595Z,99384.00
2023-08-27T03:11:43.485Z,99375.81
2023-08-27T03:14:34.658Z,99384.53
2023-08-27T03:17:38.472Z,99389.75
2023-08-27T03:20:30.252Z,99388.34
2023-08-27T03:23:37.469Z,99392.72
2023-08-27T03:26:28.749Z,99396.19
2023-08-27T03:29:34.477Z,99392.47
2023-08-27T03:32:25.724Z,99399.09
2023-08-27T03:35:30.506Z,99406.34
2023-08-27T03:38:21.727Z,99403.62
2023-08-27T03:41:26.481Z,99414.41
2023-08-27T03:44:17.801Z,99411.91
2023-08-27T03:47:22.548Z,99413.75
2023-08-27T03:50:13.797Z,99418.12
2023-08-27T03:53:19.472Z,99422.22
2023-08-27T03:56:10.828Z,99429.84
2023-08-27T03:59:15.487Z,99431.72
2023-08-27T04:02:08.305Z,99420.19
2023-08-27T04:05:13.534Z,99435.84
2023-08-27T04:08:04.918Z,99442.41
2023-08-27T04:11:09.530Z,99449.06
2023-08-27T04:14:00.748Z,99433.00
2023-08-27T04:17:05.510Z,99452.81
2023-08-27T04:19:56.749Z,99446.41
2023-08-27T04:23:00.780Z,99449.09
2023-08-27T04:25:52.628Z,99444.78
2023-08-27T04:28:57.505Z,99447.84
2023-08-27T04:32:08.504Z,99438.34
2023-08-27T04:35:12.478Z,99440.41
2023-08-27T04:38:10.800Z,99449.00
2023-08-27T04:41:10.500Z,99449.00
2023-08-27T04:44:07.606Z,99445.63
2023-08-27T04:47:07.514Z,99443.09
2023-08-27T04:50:05.550Z,99452.91
2023-08-27T04:53:03.503Z,99443.88
2023-08-27T04:56:01.750Z,99450.59
2023-08-27T04:58:59.544Z,99453.22
2023-08-27T05:01:59.967Z,99455.97
2023-08-27T05:04:57.531Z,99453.16
2023-08-27T05:07:55.588Z,99454.56
2023-08-27T05:10:53.591Z,99446.53
2023-08-27T05:13:50.588Z,99448.91
2023-08-27T05:16:48.562Z,99435.66
2023-08-27T05:19:46.694Z,99452.78
2023-08-27T05:22:44.618Z,99462.28
2023-08-27T05:25:42.931Z,99454.59
2023-08-27T05:28:42.572Z,99450.91
2023-08-27T05:31:40.778Z,99456.16
2023-08-27T05:34:38.585Z,99450.69
2023-08-27T05:37:36.668Z,99438.78
2023-08-27T05:40:34.590Z,99440.72
2023-08-27T05:43:31.610Z,99437.22
2023-08-27T05:46:29.606Z,99433.81
2023-08-27T05:49:26.651Z,99425.75
2023-08-27T05:52:24.612Z,99447.88
2023-08-27T05:55:22.627Z,99443.38
2023-08-27T05:58:20.596Z,99448.38
2023-08-27T06:01:18.667Z,99449.72
2023-08-27T06:04:16.554Z,99443.13
2023-08-27T06:07:13.672Z,99447.13
2023-08-27T06:10:11.592Z,99447.56
2023-08-27T06:13:22.584Z,99457.41
2023-08-27T06:16:26.624Z,99453.44
2023-08-27T06:19:28.639Z,99453.34
2023-08-27T06:22:34.594Z,99461.94
2023-08-27T06:25:32.686Z,99453.03
2023-08-27T06:28:30.594Z,99444.09
2023-08-27T06:31:28.072Z,99455.94
2023-08-27T06:34:32.677Z,99447.69
2023-08-27T06:37:43.612Z,99456.50
2023-08-27T06:40:48.629Z,99449.03
2023-08-27T06:43:45.701Z,99457.50
2023-08-27T06:46:43.616Z,99458.88
2023-08-27T06:49:41.749Z,99463.34
2023-08-27T06:52:39.648Z,99460.97
2023-08-27T06:55:37.729Z,99462.84
2023-08-27T06:58:36.680Z,99455.16
2023-08-27T07:01:34.725Z,99450.66
2023-08-27T07:04:32.667Z,99460.13
2023-08-27T07:07:30.751Z,99452.59
2023-08-27T07:10:28.678Z,99453.53
2023-08-27T07:13:25.723Z,99441.34
2023-08-27T07:16:23.681Z,99454.75
2023-08-27T07:19:21.745Z,99448.91
2023-08-27T07:22:19.707Z,99461.59
2023-08-27T07:25:19.515Z,99450.56
2023-08-27T07:28:17.675Z,99449.50
2023-08-27T07:31:15.796Z,99445.53
2023-08-27T07:34:19.694Z,99446.72
2023-08-27T07:37:10.728Z,99436.97
2023-08-27T07:40:16.697Z,99440.03
2023-08-27T07:43:07.841Z,99438.13
2023-08-27T07:46:11.827Z,99438.16
2023-08-27T07:49:02.751Z,99445.25
2023-08-27T07:52:07.713Z,99447.97
2023-08-27T07:54:58.793Z,99446.09
2023-08-27T07:58:03.853Z,99436.00
2023-08-27T08:01:05.923Z,99438.66
2023-08-27T08:04:03.794Z,99443.56
2023-08-27T08:06:55.049Z,99428.22
2023-08-27T08:09:59.710Z,99433.00
2023-08-27T08:12:52.761Z,99425.88
2023-08-27T08:16:00.747Z,99429.56
2023-08-27T08:18:52.043Z,99435.44
2023-08-27T08:21:55.714Z,99429.44
2023-08-27T08:24:47.335Z,99425.12
2023-08-27T08:27:51.698Z,99429.53
2023-08-27T08:30:49.314Z,99426.56
2023-08-27T08:33:53.757Z,99428.75
2023-08-27T08:36:45.035Z,99424.81
2023-08-27T08:39:49.744Z,99423.84
2023-08-27T08:42:49.292Z,99416.50
2023-08-27T08:46:18.875Z,99426.38
2023-08-27T08:49:15.228Z,99419.63
2023-08-27T08:52:22.750Z,99425.84
2023-08-27T08:55:15.901Z,99428.75
2023-08-27T08:58:25.750Z,99423.22
2023-08-27T09:01:18.450Z,99423.72
2023-08-27T09:04:29.742Z,99427.59
2023-08-27T09:07:29.085Z,99417.09
2023-08-27T09:10:33.807Z,99419.97
2023-08-27T09:13:25.120Z,99420.66
2023-08-27T09:16:29.829Z,99420.53
2023-08-27T09:19:21.134Z,99415.38
2023-08-27T09:22:24.853Z,99404.81
2023-08-27T09:25:16.057Z,99399.84
2023-08-27T09:28:21.863Z,99394.22
2023-08-27T09:31:52.453Z,99401.13
2023-08-27T09:34:57.808Z,99388.19
2023-08-27T09:37:49.095Z,99391.59
2023-08-27T09:40:53.781Z,99390.41
2023-08-27T09:43:55.065Z,99385.72
2023-08-27T09:47:00.801Z,99391.75
2023-08-27T09:49:52.110Z,99375.53
2023-08-27T09:52:56.837Z,99369.78
2023-08-27T09:55:51.116Z,99377.16
2023-08-27T09:58:55.867Z,99368.03
2023-08-27T10:01:48.824Z,99364.12
2023-08-27T10:05:04.860Z,99361.69
2023-08-27T10:08:03.647Z,99360.50
2023-08-27T10:11:24.878Z,99358.72
2023-08-27T10:14:18.955Z,99344.97
2023-08-27T10:17:25.000Z,99346.97
2023-08-27T10:20:17.156Z,99345.44
2023-08-27T10:23:23.836Z,99343.94
2023-08-27T10:26:15.608Z,99333.94
2023-08-27T10:29:20.848Z,99336.66
2023-08-27T10:32:12.135Z,99337.87
2023-08-27T10:35:16.881Z,99331.25
2023-08-27T10:38:09.198Z,99325.63
2023-08-27T10:41:14.930Z,99332.81
2023-08-27T10:44:10.033Z,99324.25
2023-08-27T10:47:24.943Z,99311.22
2023-08-27T10:50:21.787Z,99314.97
2023-08-27T10:53:26.934Z,99308.03
2023-08-27T10:56:37.418Z,99301.50
2023-08-27T10:59:42.915Z,99303.59
2023-08-27T11:02:59.212Z,99290.75
2023-08-27T11:06:26.895Z,99297.28
2023-08-27T11:09:23.504Z,99291.97
2023-08-27T11:12:40.910Z,99287.09
2023-08-27T11:15:32.728Z,99282.47
2023-08-27T11:18:56.923Z,99277.37
2023-08-27T11:22:06.647Z,99276.69
2023-08-27T11:25:10.911Z,99272.62
2023-08-27T11:28:03.394Z,99272.69
2023-08-27T11:31:08.952Z,99267.03
2023-08-27T11:34:01.267Z,99263.28
2023-08-27T11:37:04.962Z,99260.34
2023-08-27T11:39:56.180Z,99262.19
2023-08-27T11:43:07.985Z,99267.91
2023-08-27T11:45:59.317Z,99252.06
2023-08-27T11:49:03.941Z,99263.78
2023-08-27T11:51:59.645Z,99259.13
2023-08-27T11:55:05.007Z,99249.22
2023-08-27T11:57:56.335Z,99254.56
2023-08-27T12:01:07.996Z,99251.75
2023-08-27T12:03:59.384Z,99257.06
2023-08-27T12:07:07.986Z,99248.66
2023-08-27T12:10:02.087Z,99246.03
2023-08-27T12:13:05.974Z,99243.12
2023-08-27T12:15:57.294Z,99240.94
2023-08-27T12:19:01.989Z,99233.09
2023-08-27T12:21:54.449Z,99232.84
2023-08-27T12:24:58.992Z,99233.53
2023-08-27T12:27:49.286Z,99230.72
2023-08-27T12:31:06.106Z,99238.00
2023-08-27T12:34:04.648Z,99222.69
2023-08-27T12:37:09.062Z,99227.56
2023-08-27T12:40:00.457Z,99228.28
2023-08-27T12:43:06.041Z,99219.91
2023-08-27T12:45:57.389Z,99214.81
2023-08-27T12:49:02.011Z,99201.88
2023-08-27T12:51:53.898Z,99200.25
2023-08-27T12:54:58.064Z,99203.94
2023-08-27T12:57:49.290Z,99198.78
2023-08-27T13:00:54.071Z,99192.13
2023-08-27T13:03:45.418Z,99195.94
2023-08-27T13:06:51.051Z,99186.47
2023-08-27T13:09:42.323Z,99184.44
2023-08-27T13:12:46.109Z,99183.28
2023-08-27T13:15:37.288Z,99172.88
2023-08-27T13:18:42.075Z,99179.34
2023-08-27T13:21:33.363Z,99168.31
2023-08-27T13:24:38.072Z,99165.13
2023-08-27T13:27:30.661Z,99166.00
2023-08-27T13:30:35.088Z,99165.00
2023-08-27T13:33:26.363Z,99157.75
2023-08-27T13:36:37.090Z,99161.50
2023-08-27T13:39:35.304Z,99155.13
2023-08-27T13:42:39.150Z,99151.66
2023-08-27T13:45:30.326Z,99139.72
2023-08-27T13:48:35.093Z,99145.72
2023-08-27T13:51:26.477Z,99142.75
2023-08-27T13:54:31.084Z,99143.22
2023-08-27T13:57:22.408Z,99130.88
2023-08-27T14:00:27.081Z,99128.09
2023-08-27T14:03:18.466Z,99125.88
2023-08-27T14:06:23.127Z,99121.75
2023-08-27T14:09:14.453Z,99127.38
2023-08-27T14:12:19.165Z,99107.97
2023-08-27T14:15:30.113Z,99115.75
2023-08-27T14:18:34.124Z,99107.50
2023-08-27T14:21:45.122Z,99102.88
2023-08-27T14:24:49.108Z,99106.28
2023-08-27T14:27:46.395Z,99099.81
2023-08-27T14:30:44.180Z,99096.34
2023-08-27T14:33:41.214Z,99094.41
2023-08-27T14:36:39.113Z,99089.31
2023-08-27T14:39:37.896Z,99089.19
2023-08-27T14:42:45.265Z,99086.78
2023-08-27T14:45:36.167Z,99091.16
2023-08-27T14:48:40.186Z,99078.63
2023-08-27T14:51:31.184Z,99084.69
2023-08-27T14:54:35.146Z,99083.38
2023-08-27T14:57:33.269Z,99087.91
2023-08-27T15:00:31.197Z,99091.06
2023-08-27T15:03:22.564Z,99094.59
2023-08-27T15:06:27.140Z,99091.94
2023-08-27T15:09:18.404Z,99085.66
2023-08-27T15:12:30.194Z,99076.03
2023-08-27T15:15:23.214Z,99077.75
2023-08-27T15:18:28.200Z,99069.28
2023-08-27T15:21:19.580Z,99073.25
2023-08-27T15:24:24.168Z,99062.81
2023-08-27T15:27:15.495Z,99069.19
2023-08-27T15:30:20.250Z,99059.91
2023-08-27T15:33:11.450Z,99059.19
2023-08-27T15:36:15.242Z,99064.06
2023-08-27T15:39:06.905Z,99053.44
2023-08-27T15:42:11.194Z,99056.69
2023-08-27T15:45:01.595Z,99046.66
2023-08-27T15:48:05.609Z,99052.59
2023-08-27T15:50:56.504Z,99054.22
2023-08-27T15:54:01.222Z,99050.22
2023-08-27T15:56:52.645Z,99048.37
2023-08-27T15:59:57.229Z,99052.50
2023-08-27T16:02:48.530Z,99054.47
2023-08-27T16:05:53.266Z,99049.50
2023-08-27T16:08:45.010Z,99049.88
2023-08-27T16:11:56.288Z,99045.69
2023-08-27T16:14:53.532Z,99038.59
2023-08-27T16:17:58.293Z,99038.59
2023-08-27T16:20:49.617Z,99038.13
2023-08-27T16:23:53.334Z,99034.41
2023-08-27T16:26:44.480Z,99036.00
2023-08-27T16:29:49.250Z,99029.78
2023-08-27T16:32:39.619Z,99030.09
2023-08-27T16:35:44.249Z,99023.25
2023-08-27T16:38:35.548Z,99036.84
2023-08-27T16:41:40.319Z,99029.03
2023-08-27T16:44:31.531Z,99030.41
2023-08-27T16:47:35.300Z,99030.50
2023-08-27T16:50:26.561Z,99035.84
2023-08-27T16:53:31.299Z,99029.78
2023-08-27T16:56:42.266Z,99026.31
2023-08-27T16:59:46.303Z,99033.25
2023-08-27T17:02:44.473Z,99031.53
2023-08-27T17:05:42.313Z,99033.28
2023-08-27T17:08:39.330Z,99038.97
2023-08-27T17:11:37.334Z,99038.66
2023-08-27T17:14:34.360Z,99045.44
2023-08-27T17:17:39.387Z,99043.50
2023-08-27T17:20:30.399Z,99052.03
2023-08-27T17:23:34.299Z,99045.66
2023-08-27T17:26:25.484Z,99057.88
2023-08-27T17:29:30.324Z,99051.03
2023-08-27T17:32:21.505Z,99061.78
2023-08-27T17:35:26.353Z,99065.69
2023-08-27T17:38:17.369Z,99056.53
2023-08-27T17:41:24.304Z,99061.50
2023-08-27T17:44:22.427Z,99075.41
2023-08-27T17:47:20.346Z,99077.63
2023-08-27T17:50:13.745Z,99083.91
2023-08-27T17:53:18.479Z,99084.72
2023-08-27T17:56:09.691Z,99085.31
2023-08-27T17:59:15.470Z,99084.66
2023-08-27T18:02:06.695Z,99086.09
2023-08-27T18:05:11.353Z,99089.41
2023-08-27T18:08:03.188Z,99086.75
2023-08-27T18:11:07.389Z,99087.00
2023-08-27T18:13:58.613Z,99092.84
2023-08-27T18:17:03.415Z,99101.34
2023-08-27T18:19:54.612Z,99101.91
2023-08-27T18:22:59.394Z,99104.66
2023-08-27T18:25:50.587Z,99104.75
2023-08-27T18:28:54.374Z,99102.63
2023-08-27T18:31:46.239Z,99096.06
2023-08-27T18:34:52.384Z,99097.16
2023-08-27T18:37:43.732Z,99092.59
2023-08-27T18:40:48.447Z,99096.22
2023-08-27T18:43:39.743Z,99093.25
2023-08-27T18:46:45.383Z,99101.41
2023-08-27T18:49:36.816Z,99094.37
2023-08-27T18:52:40.404Z,99101.72
2023-08-27T18:55:31.806Z,99093.09
2023-08-27T18:58:36.474Z,99096.34
2023-08-27T19:01:28.208Z,99095.28
2023-08-27T19:04:34.412Z,99100.16
2023-08-27T19:07:24.633Z,99105.28
2023-08-27T19:10:28.635Z,99097.41
2023-08-27T19:13:39.419Z,99102.56
2023-08-27T19:16:44.462Z,99096.81
2023-08-27T19:19:41.523Z,99097.91
2023-08-27T19:22:39.869Z,99097.91
2023-08-27T19:25:38.501Z,99105.50
2023-08-27T19:28:36.506Z,99103.78
2023-08-27T19:31:45.933Z,99099.72
2023-08-27T19:34:45.330Z,99117.37
2023-08-27T19:37:42.474Z,99117.84
2023-08-27T19:40:40.438Z,99118.34
2023-08-27T19:43:37.502Z,99123.22
2023-08-27T19:46:35.488Z,99125.09
2023-08-27T19:49:32.694Z,99118.56
2023-08-27T19:52:30.514Z,99120.97
2023-08-27T19:55:28.536Z,99120.38
2023-08-27T19:58:26.486Z,99120.84
2023-08-27T20:01:24.563Z,99118.22
2023-08-27T20:04:22.480Z,99121.06
2023-08-27T20:07:20.583Z,99115.16
2023-08-27T20:10:18.522Z,99118.16
2023-08-27T20:13:15.829Z,99128.16
2023-08-27T20:16:13.549Z,99120.84
2023-08-27T20:19:24.461Z,99128.78
2023-08-27T20:22:28.507Z,99130.06
2023-08-27T20:25:25.538Z,99124.59
2023-08-27T20:28:25.550Z,99124.34
2023-08-27T20:31:23.637Z,99122.50
2023-08-27T20:34:21.528Z,99121.88
2023-08-27T20:37:19.707Z,99116.19
2023-08-27T20:40:18.550Z,99115.91
2023-08-27T20:43:15.680Z,99118.56
2023-08-27T20:46:13.547Z,99129.84
2023-08-27T20:49:10.610Z,99128.16
2023-08-27T20:52:07.544Z,99132.34
2023-08-27T20:55:19.486Z,99143.41
2023-08-27T20:58:23.488Z,99131.81
2023-08-27T21:01:20.702Z,99140.56
2023-08-27T21:04:24.617Z,99146.84
2023-08-27T21:07:15.608Z,99147.91
2023-08-27T21:10:20.539Z,99126.13
2023-08-27T21:13:11.708Z,99142.38
2023-08-27T21:16:16.615Z,99147.34
2023-08-27T21:19:13.618Z,99129.94
2023-08-27T21:22:11.596Z,99146.31
2023-08-27T21:25:10.148Z,99144.59
2023-08-27T21:28:08.609Z,99149.97
2023-08-27T21:31:19.805Z,99153.78
2023-08-27T21:34:23.606Z,99151.00
2023-08-27T21:37:21.625Z,99143.81
2023-08-27T21:40:19.600Z,99158.16
2023-08-27T21:43:16.702Z,99142.41
2023-08-27T21:46:14.618Z,99142.81
2023-08-27T21:49:12.902Z,99145.34
2023-08-27T21:52:16.598Z,99150.13
2023-08-27T21:55:07.683Z,99142.44
2023-08-27T21:58:12.656Z,99143.88
2023-08-27T22:01:03.749Z,99136.53
2023-08-27T22:04:07.786Z,99135.91
2023-08-27T22:06:58.640Z,99127.53
2023-08-27T22:10:02.631Z,99124.72
2023-08-27T22:12:53.721Z,99117.22
2023-08-27T22:15:58.587Z,99117.63
2023-08-27T22:18:49.750Z,99121.31
2023-08-27T22:21:54.625Z,99121.00
2023-08-27T22:24:46.692Z,99123.69
2023-08-27T22:27:50.626Z,99111.25
2023-08-27T22:30:41.762Z,99114.34
2023-08-27T22:33:52.655Z,99108.38
2023-08-27T22:36:50.223Z,99102.47
2023-08-27T22:40:01.675Z,99101.37
2023-08-27T22:42:58.865Z,99095.41
2023-08-27T22:46:02.871Z,99100.00
2023-08-27T22:48:53.865Z,99091.50
2023-08-27T22:51:57.634Z,99093.72
2023-08-27T22:55:08.597Z,99099.72
2023-08-27T22:58:12.654Z,99093.56
2023-08-27T23:01:10.805Z,99086.69
2023-08-27T23:04:08.667Z,99087.81
2023-08-27T23:07:19.629Z,99079.63
2023-08-27T23:10:24.701Z,99086.28
2023-08-27T23:13:22.719Z,99090.69
2023-08-27T23:16:20.870Z,99079.56
2023-08-27T23:19:17.699Z,99077.91
2023-08-27T23:22:15.696Z,99074.94
2023-08-27T23:25:13.705Z,99069.19
2023-08-27T23:28:17.747Z,99070.56
2023-08-27T23:31:08.741Z,99070.28
2023-08-27T23:34:12.702Z,99061.03
2023-08-27T23:37:03.722Z,99054.53
2023-08-27T23:40:07.685Z,99051.31
2023-08-27T23:42:58.793Z,99053.00
2023-08-27T23:46:02.690Z,99048.63
2023-08-27T23:48:53.722Z,99035.50
2023-08-27T23:51:57.694Z,99037.09
2023-08-27T23:54:48.789Z,99048.94
2023-08-27T23:57:52.741Z,99055.69
